Time;durP1;ratioP1;P1;durP2;ratioP2;P2;SDS_P1;SDS_P2;PMS_P1;PMS_P2;Temp;Humidity;BMP_temperature;BMP_pressure;BME280_temperature;BME280_humidity;BME280_pressure;Samples;Min_cycle;Max_cycle;Signal;HPM_P1;HPM_P2
2021/05/21 00:00:50;;;;;;;1.98;1.30;;;;;;;;;;5032742;28;20393;-71
2021/05/21 00:03:16;;;;;;;2.03;1.40;;;;;;;;;;5031655;28;20045;-71
2021/05/21 00:05:43;;;;;;;3.70;1.85;;;;;;;;;;5014045;28;20562;-72
2021/05/21 00:08:10;;;;;;;1.52;1.30;;;;;;;;;;5030531;28;20054;-71
2021/05/21 00:10:37;;;;;;;1.60;1.50;;;;;;;;;;5031725;28;20046;-71
2021/05/21 00:13:04;;;;;;;2.35;1.77;;;;;;;;;;5031394;28;20123;-72
2021/05/21 00:15:31;;;;;;;2.35;1.67;;;;;;;;;;5031924;28;20053;-71
2021/05/21 00:17:58;;;;;;;2.85;2.50;;;;;;;;;;5031738;28;20057;-73
2021/05/21 00:20:24;;;;;;;3.38;1.65;;;;;;;;;;5022906;28;20091;-72
2021/05/21 00:22:51;;;;;;;1.88;1.63;;;;;;;;;;5051687;28;20392;-72
2021/05/21 00:25:17;;;;;;;4.13;2.10;;;;;;;;;;5051770;28;20056;-71
2021/05/21 00:27:44;;;;;;;2.70;1.63;;;;;;;;;;5052206;28;20052;-72
2021/05/21 00:30:11;;;;;;;2.28;1.70;;;;;;;;;;5038556;28;20045;-72
2021/05/21 00:32:38;;;;;;;3.47;1.80;;;;;;;;;;5031570;28;20116;-72
2021/05/21 00:35:05;;;;;;;2.70;1.65;;;;;;;;;;5014140;28;20045;-71
2021/05/21 00:37:31;;;;;;;2.45;1.67;;;;;;;;;;5046622;28;20049;-71
2021/05/21 00:39:58;;;;;;;2.28;1.90;;;;;;;;;;5031295;28;20095;-71
2021/05/21 00:42:24;;;;;;;3.15;1.75;;;;;;;;;;5030260;28;20053;-71
2021/05/21 00:44:58;;;;;;;1.80;1.70;;;;;;;;;;5030272;28;20567;-71
2021/05/21 00:47:25;;;;;;;3.92;2.33;;;;;;;;;;5013932;28;20466;-71
2021/05/21 00:49:52;;;;;;;7.55;1.80;;;;;;;;;;5022923;28;20045;-71
2021/05/21 00:52:18;;;;;;;2.15;1.67;;;;;;;;;;5050346;28;20498;-72
2021/05/21 00:54:45;;;;;;;3.80;1.92;;;;;;;;;;5013591;28;20058;-72
2021/05/21 00:57:12;;;;;;;2.58;2.00;;;;;;;;;;5010206;28;20468;-71
2021/05/21 00:59:39;;;;;;;2.47;1.75;;;;;;;;;;5010181;28;20598;-72
2021/05/21 01:02:06;;;;;;;2.65;1.52;;;;;;;;;;4994347;28;20112;-72
2021/05/21 01:04:38;;;;;;;2.95;1.65;;;;;;;;;;4994299;28;20053;-71
2021/05/21 01:07:05;;;;;;;5.20;1.83;;;;;;;;;;5010148;28;20107;-72
2021/05/21 01:09:32;;;;;;;2.20;2.00;;;;;;;;;;5000610;28;20042;-72
2021/05/21 01:11:59;;;;;;;2.55;1.92;;;;;;;;;;5030050;28;20053;-71
2021/05/21 01:14:26;;;;;;;4.30;2.05;;;;;;;;;;5031298;28;20054;-71
2021/05/21 01:16:53;;;;;;;3.03;1.90;;;;;;;;;;5016689;28;20053;-72
2021/05/21 01:19:20;;;;;;;2.42;1.60;;;;;;;;;;5033523;28;20049;-72
2021/05/21 01:21:46;;;;;;;2.17;1.60;;;;;;;;;;5034627;28;20100;-71
2021/05/21 01:24:13;;;;;;;1.90;1.50;;;;;;;;;;5034607;28;20080;-73
2021/05/21 01:26:39;;;;;;;3.47;1.85;;;;;;;;;;5033342;28;20049;-72
2021/05/21 01:29:06;;;;;;;2.90;1.80;;;;;;;;;;5034489;28;20053;-71
2021/05/21 01:31:34;;;;;;;2.60;1.80;;;;;;;;;;5033460;28;20042;-71
2021/05/21 01:34:00;;;;;;;2.05;1.58;;;;;;;;;;5033238;28;20045;-71
2021/05/21 01:36:27;;;;;;;2.10;1.58;;;;;;;;;;5033210;28;20050;-71
2021/05/21 01:38:58;;;;;;;1.60;1.40;;;;;;;;;;5033118;28;20053;-71
2021/05/21 01:41:24;;;;;;;2.17;1.30;;;;;;;;;;5033090;28;20076;-71
2021/05/21 01:43:55;;;;;;;2.00;1.65;;;;;;;;;;5033027;28;20504;-71
2021/05/21 01:46:21;;;;;;;1.75;1.42;;;;;;;;;;5049564;28;20050;-71
2021/05/21 01:48:48;;;;;;;1.98;1.60;;;;;;;;;;5016571;28;20057;-72
2021/05/21 01:51:15;;;;;;;3.67;1.83;;;;;;;;;;5032944;28;20049;-71
2021/05/21 01:53:41;;;;;;;4.32;1.67;;;;;;;;;;5032873;28;20057;-71
2021/05/21 01:56:08;;;;;;;1.83;1.63;;;;;;;;;;5039685;28;20044;-72
2021/05/21 01:58:35;;;;;;;4.07;1.65;;;;;;;;;;5052518;28;20508;-71
2021/05/21 02:01:02;;;;;;;2.38;1.60;;;;;;;;;;5036194;28;20045;-71
2021/05/21 02:03:29;;;;;;;2.97;1.60;;;;;;;;;;5052799;28;20492;-71
2021/05/21 02:05:57;;;;;;;2.78;1.30;;;;;;;;;;5035404;28;20052;-72
2021/05/21 02:08:24;;;;;;;3.35;1.65;;;;;;;;;;5036283;28;20053;-71
2021/05/21 02:10:52;;;;;;;1.88;1.38;;;;;;;;;;5036039;28;20099;-71
2021/05/21 02:13:19;;;;;;;3.22;1.50;;;;;;;;;;5052704;28;20103;-71
2021/05/21 02:15:46;;;;;;;1.77;1.48;;;;;;;;;;5033543;28;20103;-72
2021/05/21 02:18:13;;;;;;;3.85;1.60;;;;;;;;;;5016121;28;20493;-72
2021/05/21 02:20:41;;;;;;;2.55;1.92;;;;;;;;;;5033621;28;20485;-71
2021/05/21 02:23:08;;;;;;;1.77;1.40;;;;;;;;;;5032645;28;20057;-72
2021/05/21 02:25:34;;;;;;;2.95;1.70;;;;;;;;;;5032156;28;20535;-71
2021/05/21 02:28:01;;;;;;;2.53;1.77;;;;;;;;;;5033282;28;20092;-72
2021/05/21 02:30:27;;;;;;;2.47;1.50;;;;;;;;;;5033486;28;20049;-72
2021/05/21 02:32:55;;;;;;;2.33;1.70;;;;;;;;;;5032034;28;20045;-72
2021/05/21 02:35:21;;;;;;;2.28;1.50;;;;;;;;;;5045751;28;20056;-72
2021/05/21 02:37:48;;;;;;;3.08;1.80;;;;;;;;;;5053064;28;20072;-72
2021/05/21 02:40:19;;;;;;;2.70;1.50;;;;;;;;;;5053174;28;20048;-72
2021/05/21 02:42:45;;;;;;;4.25;1.67;;;;;;;;;;5051732;28;20496;-72
2021/05/21 02:45:13;;;;;;;1.48;1.35;;;;;;;;;;5042299;28;20054;-71
2021/05/21 02:47:39;;;;;;;2.95;1.80;;;;;;;;;;5032920;28;20496;-72
2021/05/21 02:50:07;;;;;;;3.10;1.40;;;;;;;;;;5031847;28;20468;-71
2021/05/21 02:52:33;;;;;;;3.95;1.42;;;;;;;;;;5015672;28;20076;-71
2021/05/21 02:55:00;;;;;;;2.40;1.45;;;;;;;;;;5041207;28;20057;-71
2021/05/21 02:57:26;;;;;;;6.22;1.65;;;;;;;;;;5052802;28;20053;-71
2021/05/21 02:59:54;;;;;;;2.75;1.60;;;;;;;;;;5060810;22;20037;-70
2021/05/21 03:02:21;;;;;;;1.45;1.30;;;;;;;;;;5032936;28;20057;-72
2021/05/21 03:04:50;;;;;;;1.95;1.20;;;;;;;;;;5032790;28;20119;-72
2021/05/21 03:07:16;;;;;;;1.77;1.30;;;;;;;;;;5032529;28;20049;-72
2021/05/21 03:09:43;;;;;;;2.38;1.38;;;;;;;;;;5032365;28;20492;-72
2021/05/21 03:12:10;;;;;;;1.70;1.33;;;;;;;;;;5032678;28;20049;-71
2021/05/21 03:14:39;;;;;;;5.55;1.95;;;;;;;;;;5032540;28;20136;-72
2021/05/21 03:17:06;;;;;;;1.30;0.98;;;;;;;;;;5032364;28;20053;-72
2021/05/21 03:19:32;;;;;;;3.90;1.10;;;;;;;;;;5032527;28;20490;-72
2021/05/21 03:21:59;;;;;;;1.55;1.13;;;;;;;;;;5032084;28;20103;-72
2021/05/21 03:24:25;;;;;;;1.88;1.20;;;;;;;;;;5032460;28;20087;-72
2021/05/21 03:26:52;;;;;;;1.73;1.20;;;;;;;;;;5031953;28;20107;-71
2021/05/21 03:29:18;;;;;;;2.58;1.20;;;;;;;;;;5032165;28;20049;-72
2021/05/21 03:31:45;;;;;;;1.63;1.05;;;;;;;;;;5032070;28;20057;-72
2021/05/21 03:34:13;;;;;;;3.65;1.15;;;;;;;;;;5032452;28;20053;-72
2021/05/21 03:36:40;;;;;;;1.42;1.00;;;;;;;;;;5031899;28;20053;-72
2021/05/21 03:39:07;;;;;;;0.98;0.88;;;;;;;;;;5031400;28;20523;-71
2021/05/21 03:41:36;;;;;;;1.55;1.17;;;;;;;;;;5031904;28;20085;-72
2021/05/21 03:44:03;;;;;;;2.42;1.00;;;;;;;;;;5032098;28;20459;-72
2021/05/21 03:46:29;;;;;;;1.48;1.00;;;;;;;;;;5031874;28;20085;-72
2021/05/21 03:48:56;;;;;;;1.80;1.27;;;;;;;;;;5047070;28;20053;-70
2021/05/21 03:51:23;;;;;;;1.98;1.02;;;;;;;;;;5031918;28;20568;-72
2021/05/21 03:53:50;;;;;;;1.80;1.20;;;;;;;;;;5020147;28;20492;-72
2021/05/21 03:56:16;;;;;;;2.08;1.20;;;;;;;;;;5011981;28;20050;-71
2021/05/21 03:58:43;;;;;;;1.90;1.30;;;;;;;;;;5011871;28;20049;-72
2021/05/21 04:01:09;;;;;;;3.97;1.20;;;;;;;;;;5013771;28;20050;-72
2021/05/21 04:03:36;;;;;;;1.38;1.02;;;;;;;;;;5031876;28;20053;-72
2021/05/21 04:06:03;;;;;;;1.25;1.15;;;;;;;;;;5046709;28;20049;-70
2021/05/21 04:08:31;;;;;;;1.83;1.13;;;;;;;;;;5031682;28;20049;-71
2021/05/21 04:10:58;;;;;;;1.00;0.90;;;;;;;;;;5031167;28;20111;-71
2021/05/21 04:13:25;;;;;;;1.00;0.90;;;;;;;;;;5031695;28;20061;-71
2021/05/21 04:15:52;;;;;;;1.08;0.98;;;;;;;;;;5031352;28;20050;-71
2021/05/21 04:18:18;;;;;;;2.42;1.10;;;;;;;;;;5031677;28;20083;-72
2021/05/21 04:20:45;;;;;;;2.25;1.27;;;;;;;;;;5031400;28;20073;-72
2021/05/21 04:23:11;;;;;;;4.80;1.77;;;;;;;;;;5031459;28;20065;-71
2021/05/21 04:25:38;;;;;;;2.60;0.98;;;;;;;;;;5046316;28;20562;-72
2021/05/21 04:28:04;;;;;;;1.95;1.08;;;;;;;;;;5031403;28;20053;-72
2021/05/21 04:30:31;;;;;;;1.50;1.00;;;;;;;;;;5031327;28;20046;-69
2021/05/21 04:32:57;;;;;;;1.85;1.05;;;;;;;;;;5031328;28;20072;-71
2021/05/21 04:35:24;;;;;;;1.17;1.02;;;;;;;;;;5031280;28;20488;-71
2021/05/21 04:37:51;;;;;;;2.47;1.00;;;;;;;;;;5027165;28;20455;-71
2021/05/21 04:40:17;;;;;;;1.20;1.10;;;;;;;;;;5011468;28;20095;-70
2021/05/21 04:42:44;;;;;;;2.05;0.82;;;;;;;;;;5011721;28;20057;-71
2021/05/21 04:45:16;;;;;;;1.00;0.90;;;;;;;;;;5011630;28;20061;-71
2021/05/21 04:47:42;;;;;;;1.17;0.70;;;;;;;;;;5011623;28;20050;-72
2021/05/21 04:50:09;;;;;;;1.35;0.90;;;;;;;;;;5012232;28;20124;-72
2021/05/21 04:52:36;;;;;;;2.45;1.00;;;;;;;;;;5015265;28;20073;-71
2021/05/21 04:55:03;;;;;;;1.00;0.90;;;;;;;;;;5015144;28;20049;-71
2021/05/21 04:57:29;;;;;;;1.38;0.90;;;;;;;;;;5015237;28;20049;-72
2021/05/21 04:59:56;;;;;;;0.80;0.80;;;;;;;;;;5014966;28;20479;-72
2021/05/21 05:02:22;;;;;;;2.10;0.95;;;;;;;;;;5015209;28;20046;-72
2021/05/21 05:04:50;;;;;;;1.65;1.00;;;;;;;;;;5015179;28;20050;-72
2021/05/21 05:07:16;;;;;;;1.50;1.23;;;;;;;;;;5014749;28;20093;-72
2021/05/21 05:09:43;;;;;;;1.55;1.25;;;;;;;;;;5015070;28;20050;-72
2021/05/21 05:12:09;;;;;;;4.03;1.50;;;;;;;;;;5014939;28;20394;-72
2021/05/21 05:14:36;;;;;;;1.42;1.30;;;;;;;;;;5013788;28;20416;-70
2021/05/21 05:17:03;;;;;;;3.17;1.60;;;;;;;;;;5014691;28;20077;-71
2021/05/21 05:19:29;;;;;;;1.98;1.15;;;;;;;;;;5014769;28;20080;-71
2021/05/21 05:21:57;;;;;;;4.13;1.45;;;;;;;;;;5014712;28;20049;-71
2021/05/21 05:24:24;;;;;;;2.92;1.30;;;;;;;;;;5023338;28;20049;-72
2021/05/21 05:26:50;;;;;;;4.88;1.75;;;;;;;;;;5034155;28;20049;-72
2021/05/21 05:29:17;;;;;;;3.55;1.77;;;;;;;;;;5034138;28;20089;-72
2021/05/21 05:31:46;;;;;;;2.53;1.50;;;;;;;;;;5049731;28;20049;-71
2021/05/21 05:34:14;;;;;;;2.47;1.20;;;;;;;;;;5019971;28;20081;-72
2021/05/21 05:36:41;;;;;;;4.70;1.75;;;;;;;;;;5014306;28;20077;-70
2021/05/21 05:39:08;;;;;;;2.03;1.40;;;;;;;;;;5014337;28;20057;-71
2021/05/21 05:41:35;;;;;;;3.05;1.48;;;;;;;;;;5014473;28;20045;-72
2021/05/21 05:44:01;;;;;;;6.68;2.70;;;;;;;;;;5014297;28;20528;-72
2021/05/21 05:46:28;;;;;;;2.28;1.27;;;;;;;;;;5014228;28;20046;-73
2021/05/21 05:48:55;;;;;;;2.67;1.23;;;;;;;;;;5012387;28;20100;-72
2021/05/21 05:51:21;;;;;;;2.45;1.20;;;;;;;;;;5012453;28;20053;-71
2021/05/21 05:53:48;;;;;;;2.03;1.30;;;;;;;;;;5012119;28;20508;-71
2021/05/21 05:56:14;;;;;;;1.63;1.15;;;;;;;;;;5012107;28;20062;-69
2021/05/21 05:58:41;;;;;;;3.13;1.35;;;;;;;;;;5010714;28;20536;-73
2021/05/21 06:01:08;;;;;;;1.35;1.08;;;;;;;;;;5011168;28;20045;-72
2021/05/21 06:03:34;;;;;;;3.28;1.50;;;;;;;;;;5020555;28;20045;-71
2021/05/21 06:06:01;;;;;;;3.33;1.10;;;;;;;;;;5031853;28;20236;-71
2021/05/21 06:08:47;;;;;;;1.40;0.93;;;;;;;;;;5032074;28;20063;-71
2021/05/21 06:11:14;;;;;;;2.97;1.60;;;;;;;;;;5029221;28;20046;-72
2021/05/21 06:13:42;;;;;;;1.58;0.80;;;;;;;;;;5011925;28;20420;-71
2021/05/21 06:16:08;;;;;;;2.08;1.23;;;;;;;;;;5011031;28;20135;-71
2021/05/21 06:18:35;;;;;;;3.85;1.85;;;;;;;;;;5011751;28;20046;-72
2021/05/21 06:21:02;;;;;;;3.83;2.35;;;;;;;;;;5026612;28;20045;-71
2021/05/21 06:23:30;;;;;;;3.22;1.80;;;;;;;;;;5015651;28;20407;-72
2021/05/21 06:26:10;;;;;;;3.65;1.30;;;;;;;;;;5029958;28;20107;-72
2021/05/21 06:28:36;;;;;;;2.65;1.40;;;;;;;;;;5030829;28;20079;-71
2021/05/21 06:31:03;;;;;;;3.58;1.23;;;;;;;;;;5030553;28;20049;-71
2021/05/21 06:33:29;;;;;;;3.33;1.70;;;;;;;;;;5011532;28;20118;-72
2021/05/21 06:35:56;;;;;;;1.83;1.45;;;;;;;;;;5011099;28;20082;-71
2021/05/21 06:38:23;;;;;;;5.57;1.50;;;;;;;;;;5011558;28;20046;-70
2021/05/21 06:40:49;;;;;;;1.80;1.17;;;;;;;;;;5010884;28;20123;-71
2021/05/21 06:43:18;;;;;;;3.03;1.65;;;;;;;;;;5026820;28;20103;-71
2021/05/21 06:45:46;;;;;;;4.57;1.08;;;;;;;;;;5024843;28;20080;-73
2021/05/21 06:48:12;;;;;;;6.05;1.60;;;;;;;;;;5046040;28;20053;-70
2021/05/21 06:50:39;;;;;;;3.90;1.05;;;;;;;;;;5031285;28;20054;-73
2021/05/21 06:53:06;;;;;;;3.65;0.98;;;;;;;;;;5013463;28;20630;-72
2021/05/21 06:55:32;;;;;;;1.45;0.85;;;;;;;;;;5010368;28;20475;-71
2021/05/21 06:57:59;;;;;;;4.10;1.10;;;;;;;;;;5011022;28;20488;-72
2021/05/21 07:00:25;;;;;;;4.30;1.05;;;;;;;;;;5010674;28;20505;-72
2021/05/21 07:02:52;;;;;;;2.60;1.20;;;;;;;;;;5025212;28;20080;-72
2021/05/21 07:05:19;;;;;;;3.28;1.50;;;;;;;;;;5030606;28;20053;-72
2021/05/21 07:07:46;;;;;;;2.33;0.90;;;;;;;;;;5029956;28;20100;-72
2021/05/21 07:10:13;;;;;;;2.72;1.02;;;;;;;;;;5032741;28;20103;-69
2021/05/21 07:12:40;;;;;;;2.78;1.10;;;;;;;;;;5031733;28;20073;-70
2021/05/21 07:15:07;;;;;;;5.93;1.33;;;;;;;;;;5032348;28;20111;-72
2021/05/21 07:17:34;;;;;;;7.65;1.55;;;;;;;;;;5031912;28;20045;-72
2021/05/21 07:20:01;;;;;;;2.10;1.13;;;;;;;;;;5027284;28;20049;-70
2021/05/21 07:22:28;;;;;;;4.72;1.38;;;;;;;;;;5030898;28;20053;-70
2021/05/21 07:24:55;;;;;;;5.53;1.45;;;;;;;;;;5022445;28;20052;-70
2021/05/21 07:27:22;;;;;;;3.20;1.30;;;;;;;;;;5022707;28;20554;-71
2021/05/21 07:29:48;;;;;;;1.55;1.00;;;;;;;;;;5030556;28;20107;-71
2021/05/21 07:32:15;;;;;;;1.58;1.00;;;;;;;;;;5030025;28;20045;-72
2021/05/21 07:34:41;;;;;;;3.42;1.33;;;;;;;;;;5028300;28;20077;-72
2021/05/21 07:37:08;;;;;;;2.47;0.90;;;;;;;;;;5030751;28;20068;-70
2021/05/21 07:39:36;;;;;;;3.17;1.50;;;;;;;;;;5030667;28;20420;-71
2021/05/21 07:42:03;;;;;;;1.70;0.93;;;;;;;;;;5030385;28;20046;-71
2021/05/21 07:44:30;;;;;;;2.05;0.90;;;;;;;;;;5030861;28;20049;-70
2021/05/21 07:46:56;;;;;;;2.72;1.15;;;;;;;;;;5027093;28;20049;-70
2021/05/21 07:49:24;;;;;;;2.42;0.70;;;;;;;;;;5030193;28;20077;-71
2021/05/21 07:51:52;;;;;;;4.43;0.80;;;;;;;;;;5030226;28;20071;-71
2021/05/21 07:54:19;;;;;;;3.63;0.90;;;;;;;;;;5031021;28;20113;-71
2021/05/21 07:56:45;;;;;;;3.15;1.00;;;;;;;;;;5031339;28;20103;-71
2021/05/21 07:59:13;;;;;;;3.40;0.60;;;;;;;;;;5030364;28;20045;-69
2021/05/21 08:01:40;;;;;;;1.33;0.80;;;;;;;;;;5031369;28;20076;-69
2021/05/21 08:04:07;;;;;;;1.88;0.70;;;;;;;;;;5031309;28;20081;-69
2021/05/21 08:06:38;;;;;;;1.77;0.63;;;;;;;;;;5031291;28;20077;-73
2021/05/21 08:09:05;;;;;;;3.33;0.60;;;;;;;;;;5031305;28;20053;-70
2021/05/21 08:11:32;;;;;;;3.08;1.20;;;;;;;;;;5031448;28;20050;-70
2021/05/21 08:13:59;;;;;;;4.38;2.20;;;;;;;;;;5031133;28;20104;-74
2021/05/21 08:16:29;;;;;;;2.53;1.35;;;;;;;;;;5018904;28;20068;-73
2021/05/21 08:18:56;;;;;;;4.60;1.50;;;;;;;;;;5028146;28;20099;-73
2021/05/21 08:21:26;;;;;;;6.15;1.30;;;;;;;;;;5029065;28;20053;-71
2021/05/21 08:23:54;;;;;;;3.03;1.00;;;;;;;;;;5023690;28;20049;-74
2021/05/21 08:26:27;;;;;;;1.52;0.70;;;;;;;;;;5028515;28;20519;-74
2021/05/21 08:28:54;;;;;;;2.35;0.90;;;;;;;;;;5033952;28;20420;-74
2021/05/21 08:31:21;;;;;;;1.63;0.80;;;;;;;;;;5016439;28;20322;-74
2021/05/21 08:33:49;;;;;;;1.02;0.90;;;;;;;;;;5034344;28;20056;-74
2021/05/21 08:36:21;;;;;;;2.28;0.73;;;;;;;;;;5032810;28;20506;-75
2021/05/21 08:38:48;;;;;;;1.58;1.48;;;;;;;;;;5017224;28;20053;-74
2021/05/21 08:41:22;;;;;;;3.88;0.80;;;;;;;;;;5031497;28;20185;-74
2021/05/21 08:43:50;;;;;;;0.95;0.88;;;;;;;;;;5016349;28;20049;-73
2021/05/21 08:46:17;;;;;;;2.13;0.70;;;;;;;;;;5033833;28;20496;-75
2021/05/21 08:48:44;;;;;;;2.63;1.10;;;;;;;;;;5030643;28;20053;-76
2021/05/21 08:51:12;;;;;;;1.70;0.80;;;;;;;;;;5032513;28;20143;-74
2021/05/21 08:53:48;;;;;;;1.17;0.68;;;;;;;;;;5032599;28;20085;-75
2021/05/21 08:56:14;;;;;;;2.13;0.90;;;;;;;;;;5016016;28;20053;-72
2021/05/21 08:58:43;;;;;;;0.90;0.50;;;;;;;;;;5033681;28;20046;-73
2021/05/21 09:01:10;;;;;;;1.85;0.80;;;;;;;;;;5065767;22;20144;-69
2021/05/21 09:03:37;;;;;;;1.50;1.00;;;;;;;;;;4994556;28;20054;-69
2021/05/21 09:06:21;;;;;;;1.55;0.75;;;;;;;;;;5019726;28;20058;-68
2021/05/21 09:08:48;;;;;;;3.70;0.80;;;;;;;;;;5001792;28;20046;-69
2021/05/21 09:11:31;;;;;;;2.22;0.80;;;;;;;;;;5004135;28;20062;-69
2021/05/21 09:14:02;;;;;;;2.80;1.30;;;;;;;;;;5003934;28;20081;-69
2021/05/21 09:16:31;;;;;;;4.10;1.00;;;;;;;;;;5006657;28;20042;-68
2021/05/21 09:19:13;;;;;;;2.50;1.05;;;;;;;;;;5002423;28;20112;-70
2021/05/21 09:21:58;;;;;;;2.80;0.80;;;;;;;;;;4994047;28;20104;-72
2021/05/21 09:24:41;;;;;;;1.27;0.70;;;;;;;;;;5002969;28;20047;-69
2021/05/21 09:27:10;;;;;;;4.20;2.30;;;;;;;;;;5019784;28;20096;-69
2021/05/21 09:29:44;;;;;;;4.28;2.20;;;;;;;;;;5004360;28;20492;-69
2021/05/21 09:32:30;;;;;;;2.67;1.20;;;;;;;;;;5003564;28;20050;-68
2021/05/21 09:35:04;;;;;;;1.83;0.85;;;;;;;;;;5020673;28;20561;-70
2021/05/21 09:37:32;;;;;;;3.00;0.90;;;;;;;;;;4992842;28;20046;-70
2021/05/21 09:40:06;;;;;;;3.85;0.90;;;;;;;;;;5008968;28;20042;-73
2021/05/21 09:42:45;;;;;;;3.20;0.90;;;;;;;;;;4994978;28;20042;-72
2021/05/21 09:45:24;;;;;;;1.30;0.50;;;;;;;;;;5003739;28;20133;-73
2021/05/21 09:48:01;;;;;;;1.00;0.60;;;;;;;;;;5000620;28;20053;-73
2021/05/21 09:50:40;;;;;;;1.55;0.40;;;;;;;;;;5003295;28;20054;-72
2021/05/21 09:53:09;;;;;;;3.00;0.90;;;;;;;;;;5002089;28;20053;-73
2021/05/21 09:55:56;;;;;;;3.38;0.60;;;;;;;;;;4987656;28;20991;-74
2021/05/21 09:58:43;;;;;;;3.63;0.70;;;;;;;;;;5015121;28;20157;-73
2021/05/21 10:01:17;;;;;;;3.13;0.82;;;;;;;;;;5005974;28;20053;-75
2021/05/21 10:03:53;;;;;;;2.50;0.57;;;;;;;;;;5004234;28;20050;-73
2021/05/21 10:06:32;;;;;;;0.73;0.43;;;;;;;;;;5008649;28;20544;-73
2021/05/21 10:08:59;;;;;;;1.90;0.52;;;;;;;;;;5002923;28;20394;-72
2021/05/21 10:11:27;;;;;;;0.45;0.40;;;;;;;;;;5001411;28;20069;-70
2021/05/21 10:13:54;;;;;;;2.65;0.40;;;;;;;;;;5011464;28;20064;-70
2021/05/21 10:16:21;;;;;;;2.33;0.50;;;;;;;;;;5004247;28;20508;-71
2021/05/21 10:18:49;;;;;;;0.50;0.40;;;;;;;;;;5017923;28;20050;-73
2021/05/21 10:21:17;;;;;;;3.72;0.55;;;;;;;;;;5017078;28;20089;-71
2021/05/21 10:23:48;;;;;;;3.70;0.63;;;;;;;;;;5010012;28;20571;-70
2021/05/21 10:26:17;;;;;;;4.90;0.60;;;;;;;;;;4981552;28;20109;-71
2021/05/21 10:28:47;;;;;;;3.20;0.70;;;;;;;;;;5004813;28;20058;-70
2021/05/21 10:31:14;;;;;;;2.38;1.10;;;;;;;;;;5001291;28;20058;-71
2021/05/21 10:33:43;;;;;;;0.88;0.60;;;;;;;;;;4995178;28;20053;-71
2021/05/21 10:36:16;;;;;;;2.08;0.85;;;;;;;;;;5002438;28;20049;-71
2021/05/21 10:39:06;;;;;;;0.70;0.50;;;;;;;;;;5004884;28;20065;-73
2021/05/21 10:41:37;;;;;;;0.63;0.40;;;;;;;;;;4993886;28;20069;-71
2021/05/21 10:44:21;;;;;;;;;;;;;;;;;;4995453;28;20050;-70
2021/05/21 10:46:50;;;;;;;2.40;0.88;;;;;;;;;;5004259;28;19952;-71
2021/05/21 10:49:25;;;;;;;2.88;0.70;;;;;;;;;;4993589;28;20555;-68
2021/05/21 10:51:55;;;;;;;0.80;0.50;;;;;;;;;;5003489;28;20096;-69
2021/05/21 10:54:31;;;;;;;1.92;0.70;;;;;;;;;;5006965;28;20133;-69
2021/05/21 10:57:18;;;;;;;2.25;0.57;;;;;;;;;;4991606;28;20073;-72
2021/05/21 10:59:51;;;;;;;0.70;0.70;;;;;;;;;;5000326;28;20550;-70
2021/05/21 11:02:22;;;;;;;2.75;0.60;;;;;;;;;;4998392;28;20141;-71
2021/05/21 11:04:51;;;;;;;3.03;0.50;;;;;;;;;;4997821;28;20056;-71
2021/05/21 11:07:40;;;;;;;0.77;0.35;;;;;;;;;;5007905;28;20065;-69
2021/05/21 11:10:07;;;;;;;1.02;0.40;;;;;;;;;;4998494;28;20057;-71
2021/05/21 11:12:53;;;;;;;2.95;0.47;;;;;;;;;;5018454;28;20295;-71
2021/05/21 11:15:35;;;;;;;2.80;0.65;;;;;;;;;;4989557;28;20042;-71
2021/05/21 11:18:12;;;;;;;2.42;0.65;;;;;;;;;;4996143;28;20054;-71
2021/05/21 11:20:57;;;;;;;1.30;0.55;;;;;;;;;;5002098;28;20140;-75
2021/05/21 11:23:29;;;;;;;1.10;0.70;;;;;;;;;;5001715;28;20125;-72
2021/05/21 11:26:14;;;;;;;0.88;0.50;;;;;;;;;;4999944;28;20104;-69
2021/05/21 11:28:54;;;;;;;1.35;0.80;;;;;;;;;;4997419;28;20513;-69
2021/05/21 11:31:26;;;;;;;1.50;0.70;;;;;;;;;;5002954;28;20054;-71
2021/05/21 11:33:54;;;;;;;1.63;0.80;;;;;;;;;;5003871;28;20038;-70
2021/05/21 11:36:22;;;;;;;2.25;1.73;;;;;;;;;;4991868;28;20128;-70
2021/05/21 11:38:49;;;;;;;2.78;1.05;;;;;;;;;;4991742;28;20046;-70
2021/05/21 11:41:15;;;;;;;1.65;0.98;;;;;;;;;;4993923;28;20085;-71
2021/05/21 11:43:43;;;;;;;1.48;1.00;;;;;;;;;;4999929;28;20045;-72
2021/05/21 11:46:18;;;;;;;0.95;0.80;;;;;;;;;;4990778;28;20046;-72
2021/05/21 11:48:46;;;;;;;2.20;0.93;;;;;;;;;;5014731;28;20042;-71
2021/05/21 11:51:16;;;;;;;1.70;0.90;;;;;;;;;;5002575;28;20466;-74
2021/05/21 11:53:49;;;;;;;1.63;1.05;;;;;;;;;;4987650;28;20042;-71
2021/05/21 11:56:45;;;;;;;1.42;0.75;;;;;;;;;;5004200;28;20571;-71
2021/05/21 11:59:18;;;;;;;1.33;0.93;;;;;;;;;;4985904;28;20112;-72
2021/05/21 12:01:56;;;;;;;3.65;1.00;;;;;;;;;;4990896;28;20497;-72
2021/05/21 12:04:31;;;;;;;1.92;0.80;;;;;;;;;;5009351;28;20465;-72
2021/05/21 12:06:57;;;;;;;1.15;0.90;;;;;;;;;;4990523;28;20440;-72
2021/05/21 12:09:25;;;;;;;2.25;1.17;;;;;;;;;;4998344;28;20046;-72
2021/05/21 12:11:54;;;;;;;3.00;0.80;;;;;;;;;;4993537;28;20104;-71
2021/05/21 12:14:27;;;;;;;4.93;0.60;;;;;;;;;;5001160;28;20054;-72
2021/05/21 12:16:56;;;;;;;5.38;0.50;;;;;;;;;;4997314;28;20070;-72
2021/05/21 12:19:24;;;;;;;1.38;0.43;;;;;;;;;;5010760;28;20054;-73
2021/05/21 12:21:53;;;;;;;3.60;0.55;;;;;;;;;;4993245;28;20072;-72
2021/05/21 12:24:25;;;;;;;0.85;0.60;;;;;;;;;;5008642;28;20054;-71
2021/05/21 12:26:52;;;;;;;1.48;0.68;;;;;;;;;;5010642;28;20555;-72
2021/05/21 12:29:20;;;;;;;1.65;0.57;;;;;;;;;;5010444;28;20054;-72
2021/05/21 12:31:48;;;;;;;1.05;0.55;;;;;;;;;;5026796;28;20073;-72
2021/05/21 12:34:16;;;;;;;0.40;0.40;;;;;;;;;;5027228;28;20042;-72
2021/05/21 12:36:43;;;;;;;0.57;0.40;;;;;;;;;;5011485;28;20497;-72
2021/05/21 12:39:10;;;;;;;0.75;0.45;;;;;;;;;;5011594;28;20096;-72
2021/05/21 12:41:39;;;;;;;1.83;0.80;;;;;;;;;;5010499;28;20517;-72
2021/05/21 12:44:17;;;;;;;0.75;0.40;;;;;;;;;;5010152;28;20069;-72
2021/05/21 12:46:46;;;;;;;2.05;0.60;;;;;;;;;;5011356;28;20050;-72
2021/05/21 12:49:14;;;;;;;0.80;0.40;;;;;;;;;;5010336;28;20104;-71
2021/05/21 12:51:40;;;;;;;1.40;0.70;;;;;;;;;;5010550;28;20095;-72
2021/05/21 12:54:19;;;;;;;2.33;0.55;;;;;;;;;;5010253;28;20050;-72
2021/05/21 12:56:54;;;;;;;1.20;0.60;;;;;;;;;;5011077;28;20050;-71
2021/05/21 12:59:21;;;;;;;1.23;0.70;;;;;;;;;;5025770;28;20051;-72
2021/05/21 13:01:54;;;;;;;1.33;0.88;;;;;;;;;;5010089;28;20049;-72
2021/05/21 13:04:21;;;;;;;0.68;0.60;;;;;;;;;;5026656;28;20100;-72
2021/05/21 13:06:49;;;;;;;2.60;1.00;;;;;;;;;;5009955;28;20103;-71
2021/05/21 13:09:15;;;;;;;1.80;0.60;;;;;;;;;;4994210;28;20050;-72
2021/05/21 13:11:55;;;;;;;0.80;0.60;;;;;;;;;;5012956;28;20104;-71
2021/05/21 13:14:23;;;;;;;1.25;0.90;;;;;;;;;;5013897;28;20065;-71
2021/05/21 13:16:52;;;;;;;2.78;1.60;;;;;;;;;;4997402;28;20054;-71
2021/05/21 13:19:26;;;;;;;2.70;1.25;;;;;;;;;;5013680;28;20489;-72
2021/05/21 13:21:54;;;;;;;1.40;1.00;;;;;;;;;;4998584;28;20077;-73
2021/05/21 13:24:22;;;;;;;2.25;0.90;;;;;;;;;;5015287;28;20112;-71
2021/05/21 13:26:53;;;;;;;2.22;0.90;;;;;;;;;;5015553;28;20049;-72
2021/05/21 13:29:21;;;;;;;3.50;1.05;;;;;;;;;;5014069;28;20057;-71
2021/05/21 13:31:48;;;;;;;3.35;0.90;;;;;;;;;;5030416;28;20054;-71
2021/05/21 13:34:15;;;;;;;1.45;0.82;;;;;;;;;;5030309;28;20096;-72
2021/05/21 13:36:42;;;;;;;1.85;0.93;;;;;;;;;;5029831;28;20332;-72
2021/05/21 13:39:09;;;;;;;3.10;1.23;;;;;;;;;;5013524;28;20100;-72
2021/05/21 13:41:36;;;;;;;2.97;1.65;;;;;;;;;;5013796;28;20133;-71
2021/05/21 13:44:03;;;;;;;4.03;1.20;;;;;;;;;;5030774;28;20092;-73
2021/05/21 13:46:30;;;;;;;2.50;1.10;;;;;;;;;;4997980;28;20049;-72
2021/05/21 13:48:57;;;;;;;1.70;1.10;;;;;;;;;;5014569;28;20107;-72
2021/05/21 13:51:24;;;;;;;3.30;1.42;;;;;;;;;;5014349;28;20057;-71
2021/05/21 13:53:50;;;;;;;2.10;1.20;;;;;;;;;;5013387;28;20104;-72
2021/05/21 13:56:17;;;;;;;1.35;0.80;;;;;;;;;;5031369;28;20050;-72
2021/05/21 13:58:44;;;;;;;2.70;0.80;;;;;;;;;;5029444;28;20497;-72
2021/05/21 14:01:10;;;;;;;1.95;0.70;;;;;;;;;;5013809;28;20159;-71
2021/05/21 14:03:37;;;;;;;2.45;0.80;;;;;;;;;;5030196;28;20539;-73
2021/05/21 14:06:08;;;;;;;1.38;0.60;;;;;;;;;;4997285;28;20050;-71
2021/05/21 14:08:35;;;;;;;3.20;0.70;;;;;;;;;;4997214;28;20053;-72
2021/05/21 14:11:03;;;;;;;1.42;0.70;;;;;;;;;;5013339;28;20525;-72
2021/05/21 14:13:30;;;;;;;1.95;0.57;;;;;;;;;;4997549;28;20077;-72
2021/05/21 14:15:56;;;;;;;1.60;0.77;;;;;;;;;;5029540;28;20046;-72
2021/05/21 14:18:23;;;;;;;1.33;0.70;;;;;;;;;;5014306;28;20050;-73
2021/05/21 14:20:49;;;;;;;2.05;0.70;;;;;;;;;;5014012;28;20049;-71
2021/05/21 14:23:16;;;;;;;1.83;0.55;;;;;;;;;;5028668;28;20483;-71
2021/05/21 14:25:43;;;;;;;2.95;0.60;;;;;;;;;;5029138;28;20050;-70
2021/05/21 14:28:10;;;;;;;0.40;0.40;;;;;;;;;;5014013;28;20046;-71
2021/05/21 14:30:37;;;;;;;1.17;0.68;;;;;;;;;;5013765;28;20061;-70
2021/05/21 14:33:03;;;;;;;1.38;0.80;;;;;;;;;;5012249;28;20054;-70
2021/05/21 14:35:30;;;;;;;1.50;0.80;;;;;;;;;;5013289;28;20062;-71
2021/05/21 14:37:57;;;;;;;2.05;0.60;;;;;;;;;;5013390;28;20050;-69
2021/05/21 14:40:23;;;;;;;1.60;0.73;;;;;;;;;;5013703;28;20054;-71
2021/05/21 14:42:50;;;;;;;1.70;0.70;;;;;;;;;;4999163;28;20053;-73
2021/05/21 14:45:17;;;;;;;1.98;0.95;;;;;;;;;;4992055;28;20104;-75
2021/05/21 14:47:48;;;;;;;0.88;0.50;;;;;;;;;;4993756;28;20497;-72
2021/05/21 14:50:14;;;;;;;1.52;1.00;;;;;;;;;;5006603;28;20050;-71
2021/05/21 14:52:41;;;;;;;1.70;0.98;;;;;;;;;;5000679;28;20092;-72